This is the latest recevied weather packets stored in our database for station/object KC8VEU. If no packets are shown the sender has not sent any weather packets the latest 10 day(s).
| Time | Temp. | Humidity | Pressure | Rain* | Wind** | Luminosity | Snow |
|---|---|---|---|---|---|---|---|
| 1777550716 | 0° C | 95% | 1007.1 hPa | 0 mm | - | - | - |
| 1777543516 | 0° C | 95% | 1007.1 hPa | 0 mm | - | - | - |
| 1777542316 | 0° C | 95% | 1007.1 hPa | 0 mm | - | - | - |
| 1777539616 | 0.56° C | 95% | 1007.3 hPa | 0 mm | - | - | - |
| 1777536016 | 0.56° C | 95% | 1007.2 hPa | 0 mm | - | - | - |
| 1777531817 | 0.56° C | 95% | 1007.3 hPa | 0 mm | - | - | - |
| 1777530016 | 0.56° C | 95% | 1007.5 hPa | 0 mm | - | - | - |
| 1777528836 | 0.56° C | 95% | 1007.6 hPa | 0 mm | - | - | - |
| 1777517116 | 0.56° C | 94% | 1008 hPa | 0 mm | - | - | - |
| 1777508716 | 1.11° C | 91% | 1006.9 hPa | 0 mm | - | - | - |
| 1777506916 | 1.67° C | 89% | 1006.7 hPa | 0 mm | - | - | - |
| 1777504536 | 2.22° C | 86% | 1006.5 hPa | 0 mm | - | - | - |
| 1777502716 | 2.78° C | 85% | 1006.3 hPa | 0 mm | - | - | - |
| 1777501516 | 3.33° C | 81% | 1006.2 hPa | 0 mm | - | - | - |
| 1777494316 | 5.56° C | 73% | 1006 hPa | 0 mm | - | - | - |
| 1777493736 | 5.56° C | 72% | 1005.9 hPa | 0 mm | - | - | - |
| 1777493116 | 6.11° C | 70% | 1005.9 hPa | 0 mm | - | - | - |
| 1777488936 | 6.11° C | 72% | 1005.9 hPa | 0 mm | - | - | - |
| 1777481716 | 6.11° C | 69% | 1006.3 hPa | 0 mm | - | - | - |
| 1777481116 | 6.11° C | 70% | 1006.4 hPa | 0 mm | - | - | - |
| 1777478716 | 6.11° C | 70% | 1006.6 hPa | 0 mm | - | - | - |
| 1777474516 | 6.11° C | 67% | 1006.9 hPa | 0 mm | - | - | - |
| 1777472116 | 5.56° C | 68% | 1007.2 hPa | 0 mm | - | - | - |
| 1777470916 | 5.56° C | 69% | 1007.1 hPa | 0 mm | - | - | - |
| 1777466116 | 2.78° C | 83% | 1007.1 hPa | 0 mm | - | - | - |
* Rain latest hour (hover to see other rain measurements)
** Current wind speed in m/s (hover to see current wind gust speed)